Time;durP1;ratioP1;P1;durP2;ratioP2;P2;SDS_P1;SDS_P2;PMS_P1;PMS_P2;Temp;Humidity;BMP_temperature;BMP_pressure;BME280_temperature;BME280_humidity;BME280_pressure;Samples;Min_cycle;Max_cycle;Signal;HPM_P1;HPM_P2
2021/03/13 00:01:12;;;;;;;0.60;0.50;;;5.10;99.90;;;;;;5012305;28;20211;-86
2021/03/13 00:03:39;;;;;;;0.60;0.50;;;5.30;99.90;;;;;;5013911;28;20706;-87
2021/03/13 00:06:06;;;;;;;0.93;0.60;;;5.20;99.90;;;;;;5013393;28;20207;-87
2021/03/13 00:08:35;;;;;;;0.60;0.40;;;5.10;99.90;;;;;;5012613;28;20647;-86
2021/03/13 00:11:03;;;;;;;0.50;0.40;;;5.10;99.90;;;;;;5013503;28;20582;-86
2021/03/13 00:13:29;;;;;;;0.50;0.43;;;5.10;99.90;;;;;;5013680;28;20600;-86
2021/03/13 00:15:57;;;;;;;0.82;0.50;;;5.20;99.90;;;;;;5012874;28;20207;-88
2021/03/13 00:18:24;;;;;;;0.80;0.70;;;5.10;99.90;;;;;;5013997;28;20251;-86
2021/03/13 00:20:50;;;;;;;0.80;0.50;;;5.60;99.90;;;;;;5013427;28;20211;-86
2021/03/13 00:23:17;;;;;;;1.02;0.55;;;5.30;99.90;;;;;;5016997;28;20269;-87
2021/03/13 00:25:44;;;;;;;0.50;0.50;;;5.10;99.90;;;;;;5016978;28;20242;-87
2021/03/13 00:28:11;;;;;;;3.15;0.60;;;5.20;99.90;;;;;;5017834;28;20218;-88
2021/03/13 00:30:40;;;;;;;0.88;0.70;;;5.20;99.90;;;;;;5017367;28;20227;-83
2021/03/13 00:33:08;;;;;;;0.60;0.50;;;5.40;99.90;;;;;;5015969;28;20290;-85
2021/03/13 00:35:35;;;;;;;0.40;0.40;;;5.50;99.90;;;;;;5016957;28;20330;-83
2021/03/13 00:38:03;;;;;;;0.50;0.50;;;6.60;99.90;;;;;;5017190;28;20203;-86
2021/03/13 00:40:31;;;;;;;3.75;0.57;;;5.60;99.90;;;;;;5016560;28;20298;-84
2021/03/13 00:43:00;;;;;;;0.50;0.43;;;5.40;99.90;;;;;;5016931;28;20290;-82
2021/03/13 00:45:28;;;;;;;0.55;0.50;;;5.70;99.90;;;;;;5016753;28;20294;-85
2021/03/13 00:47:56;;;;;;;1.67;0.70;;;5.40;99.90;;;;;;5015649;28;20273;-85
2021/03/13 00:50:24;;;;;;;0.63;0.50;;;5.50;99.90;;;;;;5016146;28;20698;-84
2021/03/13 00:52:51;;;;;;;0.60;0.50;;;5.50;99.90;;;;;;5016674;28;20235;-86
2021/03/13 00:55:19;;;;;;;4.32;0.90;;;5.50;99.90;;;;;;5016769;28;20238;-83
2021/03/13 00:57:45;;;;;;;1.40;0.60;;;5.60;99.90;;;;;;5016478;28;20282;-84
2021/03/13 01:00:14;;;;;;;1.02;0.70;;;5.50;99.90;;;;;;5016513;28;20239;-82
2021/03/13 01:02:42;;;;;;;1.10;0.77;;;5.60;99.90;;;;;;5015057;28;20718;-86
2021/03/13 01:05:10;;;;;;;0.60;0.55;;;5.60;99.90;;;;;;5016224;28;20207;-86
2021/03/13 01:07:37;;;;;;;1.05;0.77;;;5.70;99.90;;;;;;5016816;28;20215;-87
2021/03/13 01:10:10;;;;;;;1.50;0.60;;;6.90;99.90;;;;;;5016403;28;20266;-84
2021/03/13 01:12:36;;;;;;;1.15;0.50;;;6.10;99.90;;;;;;5016292;28;20254;-84
2021/03/13 01:15:04;;;;;;;3.33;0.95;;;6.10;99.90;;;;;;5015808;28;20286;-85
2021/03/13 01:17:30;;;;;;;0.40;0.30;;;6.20;99.90;;;;;;5015068;28;20294;-89
2021/03/13 01:19:58;;;;;;;1.67;0.60;;;6.30;99.90;;;;;;5016481;28;20303;-88
2021/03/13 01:22:24;;;;;;;1.83;0.55;;;7.30;99.90;;;;;;5016474;28;20303;-87
2021/03/13 01:24:50;;;;;;;0.80;0.80;;;6.90;99.90;;;;;;5016864;28;20738;-83
2021/03/13 01:27:17;;;;;;;1.25;0.40;;;7.10;99.90;;;;;;5016365;28;20291;-88
2021/03/13 01:29:43;;;;;;;0.60;0.52;;;6.60;99.90;;;;;;5015573;28;20227;-87
2021/03/13 01:32:09;;;;;;;1.40;0.60;;;6.10;99.90;;;;;;5014812;28;20231;-83
2021/03/13 01:34:36;;;;;;;0.60;0.50;;;6.30;99.90;;;;;;5015946;28;20293;-84
2021/03/13 01:37:04;;;;;;;0.50;0.40;;;6.00;99.90;;;;;;5015714;28;20206;-84
2021/03/13 01:39:30;;;;;;;0.40;0.30;;;6.00;99.90;;;;;;5015828;28;20695;-83
2021/03/13 01:41:56;;;;;;;0.50;0.40;;;6.10;99.90;;;;;;5015835;28;20287;-83
2021/03/13 01:44:23;;;;;;;1.70;0.57;;;6.00;99.90;;;;;;5015503;28;20294;-83
2021/03/13 01:46:49;;;;;;;0.40;0.40;;;5.90;99.90;;;;;;5014611;28;20294;-84
2021/03/13 01:49:22;;;;;;;0.68;0.40;;;5.90;99.90;;;;;;5016196;28;20365;-84
2021/03/13 01:51:49;;;;;;;0.50;0.40;;;5.80;99.90;;;;;;5016367;28;20675;-82
2021/03/13 01:54:16;;;;;;;0.60;0.40;;;5.80;99.90;;;;;;5015565;28;20286;-84
2021/03/13 01:56:43;;;;;;;0.77;0.43;;;5.90;99.90;;;;;;5015395;28;20204;-82
2021/03/13 01:59:10;;;;;;;0.40;0.40;;;5.80;99.90;;;;;;5015461;28;20239;-84
2021/03/13 02:01:36;;;;;;;0.60;0.40;;;5.80;99.90;;;;;;5013953;28;20298;-83
2021/03/13 02:04:04;;;;;;;0.70;0.50;;;6.30;99.90;;;;;;5015115;28;20294;-83
2021/03/13 02:06:30;;;;;;;0.60;0.60;;;5.70;99.90;;;;;;5015310;28;20298;-84
2021/03/13 02:09:03;;;;;;;1.80;0.98;;;5.60;99.90;;;;;;5015034;28;20208;-83
2021/03/13 02:11:42;;;;;;;0.60;0.50;;;6.90;99.90;;;;;;5014758;28;20215;-83
2021/03/13 02:14:17;;;;;;;2.45;0.70;;;5.40;99.90;;;;;;5006153;28;20223;-84
2021/03/13 02:16:49;;;;;;;2.38;0.52;;;5.60;99.90;;;;;;4994039;28;20238;-84
2021/03/13 02:19:44;;;;;;;0.75;0.55;;;5.30;99.90;;;;;;4995360;28;20299;-83
2021/03/13 02:22:13;;;;;;;0.70;0.60;;;5.30;99.90;;;;;;4995375;28;20215;-85
2021/03/13 02:24:59;;;;;;;0.70;0.50;;;5.40;99.90;;;;;;4994840;28;20235;-83
2021/03/13 02:27:29;;;;;;;0.60;0.55;;;5.20;99.90;;;;;;4995320;28;20299;-84
2021/03/13 02:29:59;;;;;;;1.30;0.73;;;5.50;99.90;;;;;;4994922;28;20267;-84
2021/03/13 02:32:37;;;;;;;0.52;0.52;;;5.30;99.90;;;;;;4998837;28;20208;-84
2021/03/13 02:35:10;;;;;;;0.50;0.50;;;5.40;99.90;;;;;;5004714;28;20263;-83
2021/03/13 02:37:42;;;;;;;0.60;0.60;;;5.30;99.90;;;;;;5005659;28;20263;-83
2021/03/13 02:40:10;;;;;;;0.77;0.70;;;5.30;99.90;;;;;;5003058;28;20232;-82
2021/03/13 02:42:47;;;;;;;2.35;1.20;;;5.40;99.90;;;;;;5013941;28;20208;-86
2021/03/13 02:45:17;;;;;;;1.40;0.60;;;5.20;99.90;;;;;;5027739;28;20252;-80
2021/03/13 02:47:45;;;;;;;1.48;0.63;;;5.40;99.90;;;;;;5031163;28;20215;-83
2021/03/13 02:50:14;;;;;;;0.75;0.70;;;5.50;99.90;;;;;;5017432;28;20289;-84
2021/03/13 02:52:41;;;;;;;1.92;1.00;;;5.60;99.90;;;;;;5014026;28;20452;-83
2021/03/13 02:55:11;;;;;;;5.85;0.70;;;5.60;99.90;;;;;;5019147;28;20250;-82
2021/03/13 02:57:39;;;;;;;1.60;0.88;;;5.90;99.90;;;;;;5017762;28;20203;-81
2021/03/13 03:00:07;;;;;;;2.17;0.82;;;4.30;99.90;;;;;;5019802;28;20247;-81
2021/03/13 03:02:35;;;;;;;1.08;0.70;;;5.50;99.90;;;;;;5029720;28;20231;-81
2021/03/13 03:05:03;;;;;;;2.55;0.98;;;5.90;99.90;;;;;;5033780;28;20219;-81
2021/03/13 03:07:31;;;;;;;3.38;1.13;;;5.90;99.90;;;;;;5022749;28;20238;-81
2021/03/13 03:09:57;;;;;;;0.55;0.55;;;5.90;99.90;;;;;;5024188;28;20220;-82
2021/03/13 03:12:25;;;;;;;1.75;0.60;;;5.90;99.90;;;;;;5031929;28;20207;-82
2021/03/13 03:14:53;;;;;;;2.42;0.95;;;6.00;99.90;;;;;;5036921;28;20218;-85
2021/03/13 03:17:20;;;;;;;2.55;0.75;;;6.00;99.90;;;;;;5025798;28;20586;-82
2021/03/13 03:19:51;;;;;;;3.55;1.60;;;6.10;99.90;;;;;;5016972;28;20235;-82
2021/03/13 03:22:18;;;;;;;0.68;0.50;;;6.10;99.90;;;;;;5017185;28;20203;-81
2021/03/13 03:24:44;;;;;;;1.30;0.80;;;6.30;99.90;;;;;;5016515;28;20294;-83
2021/03/13 03:27:11;;;;;;;2.17;0.85;;;6.20;99.90;;;;;;5019907;28;20227;-84
2021/03/13 03:29:37;;;;;;;1.88;0.60;;;6.40;99.90;;;;;;5015544;28;20269;-84
2021/03/13 03:32:04;;;;;;;1.55;0.80;;;6.30;99.90;;;;;;5013073;28;20294;-83
2021/03/13 03:34:31;;;;;;;1.70;1.10;;;6.40;99.90;;;;;;5014206;28;20632;-85
2021/03/13 03:36:58;;;;;;;3.67;1.48;;;6.40;99.90;;;;;;5013985;28;20249;-87
2021/03/13 03:39:26;;;;;;;1.30;1.15;;;6.40;99.90;;;;;;5013978;28;20291;-86
2021/03/13 03:41:54;;;;;;;1.85;1.40;;;6.50;99.90;;;;;;5014008;28;20207;-86
2021/03/13 03:44:24;;;;;;;5.00;1.10;;;6.60;99.90;;;;;;5013594;28;20298;-82
2021/03/13 03:46:53;;;;;;;1.30;0.90;;;7.60;99.90;;;;;;5012951;28;20204;-82
2021/03/13 03:49:21;;;;;;;3.92;1.60;;;6.90;99.90;;;;;;5013114;28;20712;-82
2021/03/13 03:51:50;;;;;;;3.53;1.20;;;6.80;99.90;;;;;;5013656;28;20277;-83
2021/03/13 03:54:19;;;;;;;6.18;1.10;;;6.80;99.90;;;;;;5014151;28;20231;-85
2021/03/13 03:56:48;;;;;;;2.25;0.75;;;6.90;99.90;;;;;;5013087;28;20207;-82
2021/03/13 03:59:17;;;;;;;2.92;0.63;;;7.30;99.90;;;;;;5013683;28;20261;-84
2021/03/13 04:01:47;;;;;;;1.75;0.85;;;7.00;99.90;;;;;;5012828;28;20353;-84
2021/03/13 04:04:14;;;;;;;1.92;0.60;;;7.00;99.90;;;;;;5013509;28;20211;-81
2021/03/13 04:06:41;;;;;;;2.25;0.70;;;7.00;99.90;;;;;;5014022;28;20615;-90
2021/03/13 04:09:08;;;;;;;1.70;0.70;;;7.10;99.90;;;;;;5014051;28;20274;-87
2021/03/13 04:11:37;;;;;;;1.77;0.70;;;8.00;99.90;;;;;;5013739;28;20574;-87
2021/03/13 04:14:04;;;;;;;1.92;0.80;;;7.20;99.90;;;;;;5012568;28;20211;-83
2021/03/13 04:16:31;;;;;;;1.20;1.10;;;7.20;99.90;;;;;;5012107;28;20235;-85
2021/03/13 04:18:59;;;;;;;0.60;0.55;;;7.30;99.90;;;;;;5012520;28;20231;-84
2021/03/13 04:21:26;;;;;;;2.38;0.93;;;7.40;99.90;;;;;;5013056;28;20211;-86
2021/03/13 04:23:53;;;;;;;1.58;0.85;;;7.30;99.90;;;;;;5012599;28;20294;-83
2021/03/13 04:26:21;;;;;;;0.88;0.70;;;7.50;99.90;;;;;;5012910;28;20215;-84
2021/03/13 04:28:50;;;;;;;3.38;1.00;;;7.20;99.90;;;;;;5013038;28;20682;-84
2021/03/13 04:31:19;;;;;;;6.07;1.35;;;7.50;99.90;;;;;;5011714;28;20231;-81
2021/03/13 04:33:47;;;;;;;3.50;0.90;;;7.30;99.90;;;;;;5012404;28;20291;-85
2021/03/13 04:36:14;;;;;;;1.63;0.60;;;7.30;99.90;;;;;;5012985;28;20262;-86
2021/03/13 04:38:42;;;;;;;3.75;2.17;;;7.40;99.90;;;;;;5013204;28;20216;-83
2021/03/13 04:41:10;;;;;;;8.25;1.00;;;7.40;99.90;;;;;;5013124;28;20215;-88
2021/03/13 04:43:37;;;;;;;3.42;0.82;;;7.60;99.90;;;;;;5013318;28;20208;-90
2021/03/13 04:46:05;;;;;;;3.90;0.90;;;7.40;99.90;;;;;;5011765;28;20235;-86
2021/03/13 04:48:33;;;;;;;0.60;0.52;;;8.30;99.90;;;;;;5012266;28;20240;-87
2021/03/13 04:51:01;;;;;;;2.78;0.63;;;7.40;99.90;;;;;;5013057;28;20258;-89
2021/03/13 04:53:27;;;;;;;2.15;0.98;;;7.40;99.90;;;;;;5012778;28;20208;-86
2021/03/13 04:55:54;;;;;;;1.10;1.10;;;7.60;99.90;;;;;;5012990;28;20585;-85
2021/03/13 04:58:20;;;;;;;1.80;1.33;;;7.60;99.90;;;;;;5012983;28;20207;-87
2021/03/13 05:00:50;;;;;;;2.95;0.85;;;7.20;99.90;;;;;;5013664;28;20672;-88
2021/03/13 05:03:19;;;;;;;1.67;0.80;;;7.40;99.90;;;;;;4977944;28;20246;-84
2021/03/13 05:05:46;;;;;;;0.65;0.65;;;7.70;99.90;;;;;;5012896;28;20204;-85
2021/03/13 05:08:12;;;;;;;1.23;0.40;;;7.30;99.90;;;;;;5010391;28;20299;-85
2021/03/13 05:10:39;;;;;;;1.02;0.65;;;7.30;99.90;;;;;;5014048;28;20227;-86
2021/03/13 05:13:06;;;;;;;2.05;0.70;;;6.80;99.90;;;;;;5013737;28;20632;-88
2021/03/13 05:15:32;;;;;;;0.80;0.63;;;6.50;99.90;;;;;;5016546;28;20211;-86
2021/03/13 05:17:59;;;;;;;1.30;1.20;;;7.20;99.90;;;;;;5015138;28;20235;-88
2021/03/13 05:20:26;;;;;;;1.08;1.05;;;7.20;99.90;;;;;;5015285;28;20235;-87
2021/03/13 05:22:53;;;;;;;3.58;2.47;;;7.20;99.90;;;;;;5016517;28;20261;-85
2021/03/13 05:25:19;;;;;;;2.38;0.70;;;7.80;99.90;;;;;;5016587;28;20203;-86
2021/03/13 05:27:46;;;;;;;1.10;0.70;;;7.50;99.90;;;;;;5015897;28;20245;-85
2021/03/13 05:30:13;;;;;;;1.15;0.70;;;7.20;99.90;;;;;;5016070;28;20278;-86
2021/03/13 05:32:40;;;;;;;0.63;0.60;;;7.10;99.90;;;;;;5015310;28;20208;-88
2021/03/13 05:35:10;;;;;;;0.98;0.77;;;7.10;99.90;;;;;;5015903;28;20581;-85
2021/03/13 05:37:38;;;;;;;1.95;0.80;;;7.10;99.90;;;;;;5016255;28;20207;-86
2021/03/13 05:40:06;;;;;;;0.93;0.75;;;7.20;99.90;;;;;;5015629;28;20203;-85
2021/03/13 05:42:32;;;;;;;1.35;0.95;;;7.20;99.90;;;;;;5015809;28;20678;-85
2021/03/13 05:44:59;;;;;;;5.40;1.00;;;7.90;99.90;;;;;;5016327;28;20239;-87
2021/03/13 05:47:27;;;;;;;3.65;0.68;;;7.30;99.90;;;;;;5014468;28;20207;-86
2021/03/13 05:50:01;;;;;;;0.90;0.60;;;7.40;99.90;;;;;;5014719;28;20231;-85
2021/03/13 05:52:31;;;;;;;5.45;1.15;;;7.80;99.90;;;;;;5015580;28;20234;-86
2021/03/13 05:54:59;;;;;;;1.95;0.60;;;8.90;99.90;;;;;;5015562;28;20204;-85
2021/03/13 05:57:25;;;;;;;1.83;0.70;;;7.50;99.90;;;;;;5016047;28;20262;-85
2021/03/13 05:59:52;;;;;;;1.35;0.70;;;7.60;99.90;;;;;;5015377;28;20269;-88
2021/03/13 06:02:20;;;;;;;3.03;0.70;;;7.60;99.90;;;;;;5014650;28;20214;-87
2021/03/13 06:04:47;;;;;;;0.93;0.50;;;7.70;99.90;;;;;;5015664;28;20208;-85
2021/03/13 06:07:17;;;;;;;2.25;0.70;;;7.70;99.90;;;;;;5016777;28;20226;-86
2021/03/13 06:09:43;;;;;;;2.97;1.00;;;7.60;99.90;;;;;;5017196;28;20273;-87
2021/03/13 06:12:12;;;;;;;2.35;0.77;;;8.20;99.90;;;;;;5016442;28;20455;-87
2021/03/13 06:14:38;;;;;;;0.88;0.57;;;7.70;99.90;;;;;;5016300;28;20199;-90
2021/03/13 06:17:06;;;;;;;0.80;0.68;;;7.70;99.90;;;;;;5014130;28;20203;-87
2021/03/13 06:19:48;;;;;;;1.65;0.50;;;7.70;99.90;;;;;;5002830;28;20244;-85
2021/03/13 06:22:34;;;;;;;5.57;1.17;;;7.70;99.90;;;;;;5013341;28;20573;-82
2021/03/13 06:25:20;;;;;;;1.30;0.60;;;7.70;99.90;;;;;;5014898;28;20634;-84
2021/03/13 06:27:51;;;;;;;5.07;0.63;;;7.90;99.90;;;;;;5014871;28;20243;-85
2021/03/13 06:30:18;;;;;;;0.70;0.70;;;7.90;99.90;;;;;;5014688;28;20221;-83
2021/03/13 06:32:45;;;;;;;3.22;0.85;;;8.00;99.90;;;;;;5012656;28;20303;-82
2021/03/13 06:35:19;;;;;;;2.35;1.10;;;8.00;99.90;;;;;;5014602;28;20698;-84
2021/03/13 06:37:46;;;;;;;1.48;0.70;;;8.10;99.90;;;;;;5014678;28;20654;-84
2021/03/13 06:40:26;;;;;;;0.65;0.60;;;8.20;99.90;;;;;;5014830;28;20218;-88
2021/03/13 06:42:55;;;;;;;0.77;0.60;;;8.40;99.90;;;;;;5014782;28;20207;-85
2021/03/13 06:45:22;;;;;;;0.83;0.80;;;8.50;99.90;;;;;;5015417;28;20870;-87
2021/03/13 06:47:50;;;;;;;0.90;0.80;;;8.50;99.90;;;;;;5013210;28;20868;-86
2021/03/13 06:50:18;;;;;;;0.80;0.60;;;8.70;99.90;;;;;;5014311;28;20490;-86
2021/03/13 06:52:47;;;;;;;0.80;0.60;;;8.80;99.90;;;;;;5014733;28;20450;-87
2021/03/13 06:55:18;;;;;;;0.80;0.50;;;8.90;99.90;;;;;;5015050;28;20525;-80
2021/03/13 06:57:47;;;;;;;4.60;0.70;;;8.90;99.90;;;;;;5014781;28;20797;-91
2021/03/13 07:00:29;;;;;;;1.03;0.67;;;8.80;99.90;;;;;;5015579;28;20553;-85
2021/03/13 07:03:07;;;;;;;1.98;0.75;;;8.90;99.90;;;;;;5014094;28;20807;-84
2021/03/13 07:05:34;;;;;;;1.00;0.80;;;8.90;99.90;;;;;;5015349;28;20647;-90
2021/03/13 07:08:21;;;;;;;1.17;0.83;;;8.90;99.90;;;;;;5016645;28;20965;-88
2021/03/13 07:10:48;;;;;;;2.07;0.63;;;9.00;99.90;;;;;;5016438;28;20498;-87
2021/03/13 07:13:32;;;;;;;1.50;0.97;;;9.20;99.90;;;;;;5017489;28;20490;-89
2021/03/13 07:16:22;;;;;;;3.77;0.87;;;9.00;99.90;;;;;;5027207;28;20466;-88
2021/03/13 07:18:48;;;;;;;6.27;1.07;;;9.10;99.90;;;;;;5038229;28;20437;-87
2021/03/13 07:21:16;;;;;;;2.80;0.90;;;9.30;99.90;;;;;;5028392;28;20459;-86
2021/03/13 07:23:44;;;;;;;0.90;0.53;;;9.70;99.90;;;;;;5033411;28;20434;-90
2021/03/13 07:26:11;;;;;;;1.63;0.73;;;9.90;99.90;;;;;;5038837;28;20455;-87
2021/03/13 07:28:41;;;;;;;1.87;0.90;;;10.00;99.60;;;;;;5037768;28;20459;-84
2021/03/13 07:31:12;;;;;;;1.70;1.07;;;9.70;99.30;;;;;;5028243;28;20529;-88
2021/03/13 07:33:40;;;;;;;1.37;0.90;;;9.70;99.80;;;;;;5015449;28;20502;-83
2021/03/13 07:36:11;;;;;;;1.90;0.80;;;9.60;99.00;;;;;;4995572;28;20486;-88
2021/03/13 07:38:41;;;;;;;4.03;0.80;;;9.80;99.20;;;;;;4994547;28;20470;-87
2021/03/13 07:41:10;;;;;;;1.47;0.63;;;9.90;99.10;;;;;;4991680;28;20498;-88
2021/03/13 07:43:42;;;;;;;0.80;0.60;;;10.10;98.20;;;;;;4994989;28;20463;-87
2021/03/13 07:46:09;;;;;;;0.70;0.70;;;10.10;97.90;;;;;;4993852;28;20444;-88
2021/03/13 07:48:36;;;;;;;0.73;0.67;;;10.00;97.70;;;;;;4994364;28;20506;-86
2021/03/13 07:51:04;;;;;;;0.67;0.63;;;10.40;98.10;;;;;;5009163;28;20498;-84
2021/03/13 07:53:33;;;;;;;1.87;0.70;;;10.60;98.00;;;;;;5013659;28;20474;-82
2021/03/13 07:56:00;;;;;;;0.80;0.50;;;10.70;97.60;;;;;;5013748;28;20466;-85
2021/03/13 07:58:27;;;;;;;1.37;0.97;;;10.60;97.60;;;;;;5013870;28;20953;-82
2021/03/13 08:00:55;;;;;;;1.57;1.03;;;10.80;97.50;;;;;;5014084;28;20489;-83
2021/03/13 08:03:43;;;;;;;3.43;0.80;;;10.80;96.20;;;;;;5012842;28;20513;-91
2021/03/13 08:06:14;;;;;;;3.40;1.63;;;10.70;96.20;;;;;;5014650;28;20455;-87
2021/03/13 08:08:42;;;;;;;1.80;0.80;;;10.70;96.40;;;;;;5014175;28;20493;-90
2021/03/13 08:11:10;;;;;;;1.43;0.70;;;10.60;95.90;;;;;;5010594;28;20498;-86
2021/03/13 08:13:58;;;;;;;0.77;0.60;;;10.60;96.00;;;;;;5014943;28;20458;-87
2021/03/13 08:16:35;;;;;;;1.03;0.70;;;10.50;95.70;;;;;;5011860;28;20950;-76
2021/03/13 08:19:02;;;;;;;0.60;0.50;;;10.40;96.50;;;;;;5013794;28;20541;-83
2021/03/13 08:21:43;;;;;;;0.53;0.53;;;10.30;96.30;;;;;;5014447;28;20482;-89
2021/03/13 08:24:11;;;;;;;0.70;0.70;;;10.40;96.60;;;;;;5013702;28;20525;-87
2021/03/13 08:27:11;;;;;;;1.97;0.70;;;10.70;96.50;;;;;;5013768;28;20454;-90
2021/03/13 08:29:51;;;;;;;0.60;0.50;;;10.20;95.90;;;;;;5014204;28;20462;-84
2021/03/13 08:32:18;;;;;;;2.00;0.90;;;10.20;95.90;;;;;;5012368;28;20450;-88
2021/03/13 08:34:45;;;;;;;0.60;0.50;;;10.10;95.60;;;;;;5012583;28;20989;-84
2021/03/13 08:37:20;;;;;;;1.03;0.80;;;10.10;95.50;;;;;;5013106;28;20892;-82
2021/03/13 08:39:47;;;;;;;0.70;0.47;;;10.20;95.70;;;;;;5012733;28;20521;-86
2021/03/13 08:42:31;;;;;;;1.33;1.23;;;10.30;95.30;;;;;;5013031;28;20537;-82
2021/03/13 08:48:56;;;;;;;0.40;0.40;;;10.60;94.90;;;;;;4998348;28;20810;-86
2021/03/13 08:51:22;;;;;;;0.70;0.60;;;10.90;93.80;;;;;;5021660;28;20505;-87
2021/03/13 08:53:50;;;;;;;1.00;0.47;;;11.00;94.10;;;;;;5018354;28;20553;-82
2021/03/13 08:56:38;;;;;;;2.83;0.60;;;11.00;93.80;;;;;;5017621;28;21010;-84
2021/03/13 08:59:20;;;;;;;0.50;0.40;;;10.90;92.70;;;;;;5015315;28;20447;-82
2021/03/13 09:02:02;;;;;;;0.73;0.60;;;10.90;92.70;;;;;;5016000;28;21218;-88
2021/03/13 09:04:30;;;;;;;0.70;0.70;;;10.90;93.10;;;;;;5017442;28;20811;-89
2021/03/13 09:06:57;;;;;;;2.50;1.03;;;10.80;92.30;;;;;;5016539;28;20483;-85
2021/03/13 09:09:26;;;;;;;1.00;0.70;;;10.80;93.20;;;;;;5016715;28;20893;-90
2021/03/13 09:11:57;;;;;;;1.73;1.13;;;10.80;92.70;;;;;;5016615;28;20548;-89
2021/03/13 09:14:24;;;;;;;0.90;0.60;;;10.70;92.10;;;;;;5017046;28;20501;-89
2021/03/13 09:16:51;;;;;;;1.13;0.77;;;10.70;92.90;;;;;;5015188;28;20547;-90
2021/03/13 09:19:17;;;;;;;0.50;0.50;;;10.70;92.50;;;;;;4997849;28;20481;-92
2021/03/13 09:21:47;;;;;;;1.20;1.10;;;10.80;92.20;;;;;;5016279;28;20549;-83
2021/03/13 09:24:16;;;;;;;0.53;0.50;;;10.90;92.40;;;;;;5016367;28;20541;-86
2021/03/13 09:26:47;;;;;;;0.40;0.40;;;10.90;92.50;;;;;;5016220;28;20876;-88
2021/03/13 09:29:13;;;;;;;3.53;0.80;;;11.00;91.80;;;;;;5016672;28;20521;-86
2021/03/13 09:31:40;;;;;;;0.40;0.40;;;11.10;92.00;;;;;;5015920;28;20520;-86
2021/03/13 09:34:14;;;;;;;0.67;0.67;;;11.10;91.50;;;;;;5017463;28;20486;-85
2021/03/13 09:36:40;;;;;;;0.70;0.70;;;11.40;91.20;;;;;;4983305;28;20822;-83
2021/03/13 09:39:07;;;;;;;0.57;0.53;;;11.20;91.30;;;;;;5017132;28;21321;-88
2021/03/13 09:41:33;;;;;;;0.80;0.50;;;11.20;91.40;;;;;;5016372;28;20536;-85
2021/03/13 09:44:01;;;;;;;0.60;0.60;;;11.20;91.80;;;;;;5016286;28;20478;-86
2021/03/13 09:46:30;;;;;;;0.83;0.57;;;11.30;91.50;;;;;;5014883;28;20482;-85
2021/03/13 09:48:58;;;;;;;1.50;0.50;;;11.30;90.80;;;;;;5013638;28;20450;-81
2021/03/13 09:51:26;;;;;;;1.13;0.70;;;11.30;91.10;;;;;;5015458;28;20494;-81
2021/03/13 09:53:53;;;;;;;4.63;0.90;;;11.20;90.60;;;;;;5014984;28;20454;-78
2021/03/13 09:56:29;;;;;;;0.65;0.65;;;11.30;91.10;;;;;;5013994;28;20525;-83
2021/03/13 09:58:57;;;;;;;4.30;0.80;;;11.30;90.90;;;;;;5014942;28;20207;-81
2021/03/13 10:01:25;;;;;;;1.67;0.70;;;11.30;91.20;;;;;;5013906;28;20569;-80
2021/03/13 10:03:51;;;;;;;1.00;0.90;;;11.40;91.20;;;;;;5014676;28;20538;-82
2021/03/13 10:06:18;;;;;;;2.33;0.70;;;11.30;91.00;;;;;;5015042;28;20490;-83
2021/03/13 10:08:45;;;;;;;0.60;0.50;;;11.30;90.80;;;;;;5015150;28;20454;-84
2021/03/13 10:11:11;;;;;;;0.50;0.50;;;11.20;90.80;;;;;;5013628;28;20529;-82
2021/03/13 10:13:39;;;;;;;0.63;0.63;;;11.20;91.30;;;;;;5015398;28;20457;-87
2021/03/13 10:16:11;;;;;;;0.47;0.47;;;11.30;91.70;;;;;;5013412;28;20538;-86
2021/03/13 10:18:39;;;;;;;0.90;0.60;;;11.20;90.90;;;;;;5014526;28;21068;-81
2021/03/13 10:21:07;;;;;;;2.43;0.60;;;11.10;91.30;;;;;;5014797;28;20497;-85
2021/03/13 10:23:35;;;;;;;0.73;0.57;;;11.10;91.20;;;;;;5015598;28;20875;-86
2021/03/13 10:26:03;;;;;;;0.70;0.60;;;11.10;91.90;;;;;;5014609;28;20455;-87
2021/03/13 10:28:31;;;;;;;3.20;0.90;;;11.10;91.40;;;;;;5014142;28;20486;-79
2021/03/13 10:31:05;;;;;;;0.60;0.60;;;11.10;91.00;;;;;;5009232;28;20232;-84
2021/03/13 10:33:33;;;;;;;0.80;0.50;;;11.20;91.40;;;;;;5006892;28;20947;-85
2021/03/13 10:36:01;;;;;;;5.63;0.90;;;11.30;91.50;;;;;;5013658;28;20485;-88
2021/03/13 10:38:28;;;;;;;3.90;1.30;;;11.50;92.60;;;;;;5306768;23;20586;-85
2021/03/13 10:41:08;;;;;;;1.57;0.60;;;11.30;91.30;;;;;;4975873;28;20593;-85
2021/03/13 10:43:37;;;;;;;2.10;0.80;;;11.50;91.40;;;;;;4975606;28;20460;-87
2021/03/13 10:46:16;;;;;;;0.67;0.60;;;11.50;91.50;;;;;;4969757;28;21033;-82
2021/03/13 10:49:00;;;;;;;0.70;0.53;;;11.40;91.40;;;;;;4967809;28;20468;-83
2021/03/13 10:51:32;;;;;;;1.07;0.47;;;11.40;91.70;;;;;;4972282;28;20878;-87
2021/03/13 10:53:59;;;;;;;0.40;0.40;;;11.40;91.80;;;;;;4959308;28;20552;-87
2021/03/13 10:56:38;;;;;;;0.50;0.50;;;11.40;91.20;;;;;;4964609;28;20488;-82
2021/03/13 10:59:06;;;;;;;3.27;0.67;;;11.50;91.50;;;;;;4975027;28;20539;-84
2021/03/13 11:01:33;;;;;;;0.83;0.60;;;11.50;91.20;;;;;;4974106;28;20539;-85
2021/03/13 11:04:00;;;;;;;0.60;0.50;;;11.60;91.30;;;;;;4974617;28;20510;-87
2021/03/13 11:06:28;;;;;;;0.50;0.50;;;11.60;91.00;;;;;;4974555;28;20487;-84
2021/03/13 11:08:57;;;;;;;0.70;0.50;;;11.50;91.00;;;;;;4974756;28;20470;-87
2021/03/13 11:11:24;;;;;;;1.03;0.50;;;11.60;91.00;;;;;;4974933;28;20607;-88
2021/03/13 11:13:51;;;;;;;0.87;0.50;;;11.60;91.00;;;;;;4974819;28;20551;-84
2021/03/13 11:16:19;;;;;;;1.77;0.60;;;11.60;90.80;;;;;;4973536;28;20543;-87
2021/03/13 11:18:45;;;;;;;1.00;0.90;;;11.60;90.60;;;;;;4991633;28;20562;-83
2021/03/13 11:21:12;;;;;;;0.50;0.50;;;11.70;90.90;;;;;;5009997;28;20467;-87
2021/03/13 11:23:39;;;;;;;0.87;0.60;;;11.80;90.40;;;;;;5016217;28;20454;-85
2021/03/13 11:26:06;;;;;;;0.50;0.50;;;11.70;90.10;;;;;;5016469;28;20448;-86
2021/03/13 11:28:33;;;;;;;0.43;0.43;;;11.70;89.10;;;;;;5014313;28;20450;-83
2021/03/13 11:31:01;;;;;;;1.00;0.50;;;11.80;90.50;;;;;;5005281;28;20919;-83
2021/03/13 11:33:27;;;;;;;1.47;0.60;;;11.80;89.40;;;;;;4995516;28;20547;-84
2021/03/13 11:35:53;;;;;;;1.33;0.70;;;11.90;89.80;;;;;;4989938;28;20500;-84
2021/03/13 11:38:20;;;;;;;0.87;0.67;;;12.00;89.60;;;;;;4980866;28;20488;-86
2021/03/13 11:40:46;;;;;;;0.70;0.50;;;12.20;88.80;;;;;;4976205;28;20545;-84
2021/03/13 11:43:15;;;;;;;0.40;0.40;;;12.10;88.20;;;;;;4976737;28;20579;-87
2021/03/13 11:45:42;;;;;;;1.47;0.60;;;12.10;89.30;;;;;;4977409;28;20519;-85
2021/03/13 11:48:09;;;;;;;0.63;0.63;;;12.10;88.20;;;;;;4960793;28;20465;-85
2021/03/13 11:50:37;;;;;;;0.50;0.50;;;12.10;88.80;;;;;;4958100;29;20525;-81
2021/03/13 11:53:03;;;;;;;0.70;0.70;;;12.20;89.20;;;;;;4957033;29;20446;-86
2021/03/13 11:55:30;;;;;;;0.60;0.60;;;12.10;88.40;;;;;;4955078;29;20961;-81
2021/03/13 11:57:57;;;;;;;0.50;0.50;;;12.00;88.30;;;;;;4954709;29;20553;-86
2021/03/13 12:00:25;;;;;;;0.50;0.50;;;12.10;88.40;;;;;;4955038;29;21016;-83
2021/03/13 12:02:51;;;;;;;0.80;0.73;;;12.10;88.90;;;;;;4954047;29;20558;-83
2021/03/13 12:05:18;;;;;;;0.77;0.63;;;12.10;88.80;;;;;;4955559;29;20449;-86
2021/03/13 12:07:44;;;;;;;0.50;0.50;;;12.10;89.40;;;;;;4955334;29;20453;-85
2021/03/13 12:10:11;;;;;;;1.47;0.50;;;12.30;89.20;;;;;;4954748;29;20572;-84
2021/03/13 12:12:38;;;;;;;0.80;0.50;;;12.10;88.10;;;;;;4954992;28;20555;-85
2021/03/13 12:15:06;;;;;;;18.23;1.00;;;12.20;88.30;;;;;;4970539;28;20514;-86
2021/03/13 12:17:34;;;;;;;0.60;0.50;;;12.10;89.00;;;;;;4973617;28;20460;-87
2021/03/13 12:20:00;;;;;;;0.60;0.60;;;12.20;89.30;;;;;;4977000;28;20516;-82
2021/03/13 12:22:29;;;;;;;10.03;0.80;;;12.30;89.00;;;;;;4959435;28;20512;-88
2021/03/13 12:24:55;;;;;;;1.17;0.80;;;12.30;88.80;;;;;;4958412;28;20491;-86
2021/03/13 12:27:22;;;;;;;0.67;0.67;;;12.20;90.10;;;;;;4958359;28;20488;-81
2021/03/13 12:29:50;;;;;;;1.23;0.87;;;12.10;90.10;;;;;;4958101;28;20553;-89
2021/03/13 12:32:17;;;;;;;1.90;0.70;;;12.20;90.20;;;;;;4957002;29;20574;-83
2021/03/13 12:34:44;;;;;;;0.60;0.60;;;12.30;90.10;;;;;;4958099;28;20465;-85
2021/03/13 12:37:12;;;;;;;0.60;0.50;;;12.30;90.80;;;;;;4967322;28;20540;-86
2021/03/13 12:39:39;;;;;;;0.90;0.90;;;12.40;90.60;;;;;;4979198;28;20490;-83
2021/03/13 12:42:06;;;;;;;0.63;0.63;;;12.60;90.80;;;;;;4978665;28;20487;-87
2021/03/13 12:44:33;;;;;;;1.10;0.57;;;12.50;90.40;;;;;;4979246;28;20849;-84
2021/03/13 12:46:59;;;;;;;0.60;0.50;;;12.60;90.80;;;;;;4977498;28;21076;-86
2021/03/13 12:49:26;;;;;;;1.53;0.70;;;12.40;91.00;;;;;;4976674;28;20205;-90
2021/03/13 12:51:53;;;;;;;0.87;0.50;;;12.30;91.20;;;;;;4978142;28;21030;-89
2021/03/13 12:54:20;;;;;;;0.60;0.60;;;12.10;91.90;;;;;;4978153;28;20448;-87
2021/03/13 12:56:46;;;;;;;0.50;0.50;;;11.90;92.40;;;;;;4978002;28;20864;-82
2021/03/13 12:59:13;;;;;;;0.67;0.67;;;11.90;92.30;;;;;;4978067;28;20460;-89
2021/03/13 13:01:39;;;;;;;1.90;0.90;;;12.00;92.80;;;;;;4958903;28;20464;-90
2021/03/13 13:04:06;;;;;;;2.30;1.23;;;11.80;92.80;;;;;;4976049;28;20547;-87
2021/03/13 13:06:32;;;;;;;0.70;0.70;;;11.60;93.50;;;;;;4977454;28;20561;-85